< < Back
Terminal Aerodrome Forecast


Current Version              Previous Versions:   1  2  3  4  5  6  7  8  9  

Terminal Aerodrome Forecast

309
FTUS42 KGSP 250538
TAFGSP
TAF
KGSP 250538Z 2506/2606 20003KT P6SM SCT080 OVC120
     FM251200 21007KT 6SM SHRA OVC045
     FM251500 20005KT 5SM SHRA OVC035
     FM251900 20006KT 3SM -SHRA OVC007 PROB30 2520/2523 4SM TSRA
      OVC007CB
     FM252300 25005KT P6SM OVC014
     FM260100 00000KT P6SM BKN150=



Latest METAR

818
SAUS70 KWBC 251400 RRG
MTRGSP
METAR KGSP 251353Z 20007KT 5SM -RA BR BKN003 OVC100 13/13 A2983 RMK AO2
PRESFR SLP097 P0005 T01330128


USA.gov is the U.S. government's official web portal to all federal, state and local government web resources and services.